Terminal Aerodrome Forecast
Issued by NWS

Home | Current Version | Previous Version | Text Only | Print | Product List | Glossary On
Versions: 1 2 3 4 5 6 7 8 9 10 11 12 13 14 15
997
FTUS45 KRIW 300532
TAFBPI
TAF
KBPI 300532Z 3006/0106 18007KT P6SM VCSH SCT025 BKN050
      TEMPO 3006/3010 BKN025
     FM301500 VRB06KT P6SM SCT030 BKN050
     FM302100 VRB06KT P6SM VCSH SCT030 BKN050
     FM010300 15006KT P6SM BKN050=

USA.gov is the U.S. government's official web portal to all federal, state and local government web resources and services.